Abbots Langley, United Kingdom
Current Conditions -  °F | °C
As of 8:50 AM on Sunday 23 Nov 2014 (Local Time) from EGWU Reporting Station
Light Rain Light Rain  
Wind Chill: 45°   Ceiling: 3000
Heat Index: 48°   Visibility: 6mi
Dew Point: 46°   Wind: 8mph
Humidity: 93%   Direction: 350°N
Pressure: 30"   Gusts: NA
Location:  51.71°N, 0.42°W
Report Text: EGWU 230850Z 35007KT 9999 -RA FEW012 BKN030 BKN040 09/08 Q1016 BLU TEMPO 6000 RA SCT010 GRN
Loading
Personal Weather Stations






























Interactive Weather Map New forecast layout! Learn more

10-Day Weather Forecast

Advertisements
Track Severe Weather on mobile